Time;durP1;ratioP1;P1;durP2;ratioP2;P2;SDS_P1;SDS_P2;PMS_P1;PMS_P2;Temp;Humidity;BMP_temperature;BMP_pressure;BME280_temperature;BME280_humidity;BME280_pressure;Samples;Min_cycle;Max_cycle;Signal;HPM_P1;HPM_P2
2023/10/13 00:01:25;;;;;;;28.30;11.43;;;15.10;99.90;;;;;;5067118;28;20470;-83
2023/10/13 00:03:52;;;;;;;18.73;10.15;;;15.10;99.90;;;;;;5079122;28;20067;-83
2023/10/13 00:06:18;;;;;;;26.70;11.13;;;15.00;99.90;;;;;;5060933;28;20093;-83
2023/10/13 00:08:45;;;;;;;34.17;11.73;;;15.00;99.90;;;;;;5079586;28;20032;-83
2023/10/13 00:11:15;;;;;;;21.35;10.18;;;15.00;99.90;;;;;;5066789;28;20848;-83
2023/10/13 00:13:43;;;;;;;26.33;10.60;;;15.00;99.90;;;;;;5064251;28;20033;-83
2023/10/13 00:16:17;;;;;;;24.25;10.68;;;14.90;99.90;;;;;;5060828;28;20040;-83
2023/10/13 00:18:43;;;;;;;22.90;10.48;;;14.90;99.90;;;;;;5058926;28;20024;-83
2023/10/13 00:21:35;;;;;;;25.83;10.73;;;14.90;99.90;;;;;;5062287;28;20066;-83
2023/10/13 00:24:05;;;;;;;23.33;9.88;;;15.00;99.90;;;;;;5083543;28;20028;-83
2023/10/13 00:26:35;;;;;;;19.55;10.40;;;15.00;99.90;;;;;;5063839;28;20742;-83
2023/10/13 00:29:37;;;;;;;19.17;10.25;;;15.00;99.90;;;;;;5060568;28;20686;-82
2023/10/13 00:32:04;;;;;;;23.13;11.02;;;15.00;99.90;;;;;;5057638;28;20372;-82
2023/10/13 00:34:32;;;;;;;24.65;11.57;;;15.00;99.90;;;;;;5079732;28;20019;-83
2023/10/13 00:37:17;;;;;;;24.27;11.07;;;15.00;99.90;;;;;;5072351;28;20478;-83
2023/10/13 00:39:46;;;;;;;29.85;11.18;;;15.10;99.90;;;;;;5062319;28;20078;-82
2023/10/13 00:42:19;;;;;;;25.63;10.95;;;15.10;99.90;;;;;;5091278;28;20035;-83
2023/10/13 00:44:49;;;;;;;28.02;11.02;;;15.20;99.90;;;;;;5085771;28;20053;-83
2023/10/13 00:50:07;;;;;;;27.58;11.85;;;15.30;99.90;;;;;;5075608;28;20059;-83
2023/10/13 00:52:37;;;;;;;26.33;11.02;;;15.30;99.90;;;;;;5077843;28;20029;-83
2023/10/13 00:55:04;;;;;;;27.73;13.02;;;15.20;99.90;;;;;;5064091;28;20103;-83
2023/10/13 00:57:30;;;;;;;24.83;11.57;;;15.20;99.90;;;;;;5069945;28;20047;-83
2023/10/13 00:59:57;;;;;;;29.65;12.20;;;15.30;99.90;;;;;;5078085;28;20170;-83
2023/10/13 01:05:21;;;;;;;29.88;12.88;;;15.30;99.90;;;;;;5073643;28;20034;-83
2023/10/13 01:07:54;;;;;;;21.40;11.60;;;15.30;99.90;;;;;;5082902;28;20058;-83
2023/10/13 01:10:25;;;;;;;23.33;10.32;;;15.40;99.90;;;;;;5073547;28;20027;-83
2023/10/13 01:12:55;;;;;;;21.80;11.73;;;15.40;99.90;;;;;;5071293;28;20021;-83
2023/10/13 01:15:21;;;;;;;30.02;12.73;;;15.50;99.90;;;;;;5072710;28;20013;-83
2023/10/13 01:17:48;;;;;;;26.20;11.18;;;15.60;99.90;;;;;;5070923;28;20024;-83
2023/10/13 01:20:24;;;;;;;23.33;11.05;;;15.60;99.90;;;;;;5069879;28;20074;-82
2023/10/13 01:22:55;;;;;;;26.55;10.82;;;15.70;99.90;;;;;;5069453;28;20021;-83
2023/10/13 01:25:28;;;;;;;29.83;10.07;;;15.70;99.90;;;;;;5066648;28;20044;-82
2023/10/13 01:27:57;;;;;;;29.50;9.98;;;15.80;99.90;;;;;;5048554;28;20082;-83
2023/10/13 01:30:24;;;;;;;27.98;10.10;;;15.80;99.90;;;;;;5072464;28;20028;-83
2023/10/13 01:32:53;;;;;;;19.30;10.05;;;15.80;99.90;;;;;;5077014;28;20028;-82
2023/10/13 01:35:25;;;;;;;26.13;10.27;;;15.70;99.90;;;;;;5056372;28;20470;-83
2023/10/13 01:37:51;;;;;;;20.42;9.50;;;15.70;99.90;;;;;;5064206;28;20024;-82
2023/10/13 01:40:20;;;;;;;27.45;11.02;;;15.60;99.90;;;;;;5073816;28;20815;-83
2023/10/13 01:42:46;;;;;;;31.70;9.98;;;15.60;99.90;;;;;;5105056;28;20029;-82
2023/10/13 01:45:14;;;;;;;22.50;10.20;;;15.50;99.90;;;;;;5075801;28;20724;-83
2023/10/13 01:47:41;;;;;;;36.22;11.65;;;15.50;99.90;;;;;;5071990;28;20107;-83
2023/10/13 01:50:15;;;;;;;22.25;10.27;;;15.50;99.90;;;;;;5070936;28;20028;-82
2023/10/13 01:52:43;;;;;;;22.88;11.02;;;15.50;99.90;;;;;;5071247;28;20124;-83
2023/10/13 01:55:11;;;;;;;22.77;10.02;;;15.40;99.90;;;;;;5061372;28;20064;-83
2023/10/13 01:57:37;;;;;;;20.05;11.52;;;15.40;99.90;;;;;;5058178;28;20028;-83
2023/10/13 02:00:18;;;;;;;25.73;10.85;;;15.40;99.90;;;;;;5068250;28;20033;-82
2023/10/13 02:02:45;;;;;;;18.42;10.05;;;15.40;99.90;;;;;;5055590;28;20052;-83
2023/10/13 02:05:12;;;;;;;24.60;9.70;;;15.50;99.90;;;;;;5077143;28;20020;-82
2023/10/13 02:07:38;;;;;;;24.98;10.75;;;15.50;99.90;;;;;;5088605;28;20025;-83
2023/10/13 02:10:05;;;;;;;30.80;11.27;;;15.60;99.90;;;;;;5054342;28;20104;-83
2023/10/13 02:12:44;;;;;;;25.08;9.55;;;15.70;99.90;;;;;;5069938;28;20029;-83
2023/10/13 02:15:21;;;;;;;27.77;10.20;;;15.80;99.90;;;;;;5068267;28;20031;-82
2023/10/13 02:17:51;;;;;;;28.50;10.27;;;15.80;99.90;;;;;;5069804;28;20025;-83
2023/10/13 02:20:23;;;;;;;23.80;9.03;;;15.80;99.90;;;;;;5057693;28;20032;-83
2023/10/13 02:22:49;;;;;;;23.50;9.32;;;15.80;99.90;;;;;;5068825;28;20086;-83
2023/10/13 02:28:08;;;;;;;27.45;9.38;;;15.80;99.90;;;;;;5077793;28;20024;-83
2023/10/13 02:30:44;;;;;;;21.25;8.45;;;15.70;99.90;;;;;;5078051;28;20085;-83
2023/10/13 02:33:12;;;;;;;27.45;9.73;;;15.60;99.90;;;;;;5066784;28;20032;-83
2023/10/13 02:35:42;;;;;;;18.30;9.35;;;15.50;99.90;;;;;;5077949;28;20075;-83
2023/10/13 02:38:11;;;;;;;20.83;9.90;;;15.50;99.90;;;;;;5079801;28;20601;-83
2023/10/13 02:40:38;;;;;;;20.45;9.75;;;15.40;99.90;;;;;;5077765;28;20039;-83
2023/10/13 02:43:07;;;;;;;29.98;10.88;;;15.30;99.90;;;;;;5075808;28;20491;-83
2023/10/13 02:45:36;;;;;;;26.75;10.35;;;15.20;99.90;;;;;;5079409;28;20170;-83
2023/10/13 02:48:12;;;;;;;22.52;10.70;;;15.10;99.90;;;;;;5067446;28;20495;-83
2023/10/13 02:50:43;;;;;;;31.25;10.38;;;15.00;99.90;;;;;;5064019;28;20126;-83
2023/10/13 02:53:12;;;;;;;22.42;9.88;;;14.90;99.90;;;;;;5078241;28;20029;-82
2023/10/13 02:55:49;;;;;;;28.75;10.88;;;14.90;99.90;;;;;;5066385;28;20024;-82
2023/10/13 02:58:14;;;;;;;21.25;9.98;;;14.90;99.90;;;;;;5063071;28;20036;-83
2023/10/13 03:00:41;;;;;;;23.95;9.57;;;14.90;99.90;;;;;;5069215;28;20024;-83
2023/10/13 03:03:07;;;;;;;30.30;10.07;;;14.90;99.90;;;;;;5063764;28;20369;-83
2023/10/13 03:05:38;;;;;;;21.60;9.90;;;14.80;99.90;;;;;;5062816;28;20024;-83
2023/10/13 03:08:06;;;;;;;24.17;9.50;;;14.70;99.90;;;;;;5065225;28;20434;-83
2023/10/13 03:10:32;;;;;;;16.02;9.80;;;14.70;99.90;;;;;;5064718;28;20024;-83
2023/10/13 03:13:10;;;;;;;23.75;9.18;;;14.60;99.90;;;;;;5057169;28;20445;-83
2023/10/13 03:15:36;;;;;;;24.77;9.60;;;14.70;99.90;;;;;;5070763;28;20039;-83
2023/10/13 03:18:02;;;;;;;16.88;8.88;;;14.70;99.90;;;;;;5068058;28;20103;-82
2023/10/13 03:20:31;;;;;;;23.60;9.20;;;14.70;99.90;;;;;;5085209;28;20028;-83
2023/10/13 03:22:58;;;;;;;20.50;9.77;;;14.60;99.90;;;;;;5095015;28;20104;-83
2023/10/13 03:25:36;;;;;;;21.63;9.10;;;14.70;99.90;;;;;;5095450;28;20414;-82
2023/10/13 03:28:04;;;;;;;24.40;8.77;;;14.80;99.90;;;;;;5063099;28;20060;-82
2023/10/13 03:30:43;;;;;;;30.67;8.77;;;15.00;99.90;;;;;;5095373;28;20038;-82
2023/10/13 03:33:11;;;;;;;17.50;8.23;;;15.10;99.90;;;;;;5078976;28;20036;-83
2023/10/13 03:35:42;;;;;;;25.52;9.13;;;15.20;99.90;;;;;;5059775;28;20801;-83
2023/10/13 03:38:16;;;;;;;27.77;8.30;;;15.20;99.90;;;;;;5083020;28;20023;-83
2023/10/13 03:40:48;;;;;;;17.73;8.85;;;15.30;99.90;;;;;;5061637;28;20029;-83
2023/10/13 03:43:16;;;;;;;18.75;8.38;;;15.20;99.90;;;;;;5083190;28;20028;-83
2023/10/13 03:45:44;;;;;;;25.63;8.18;;;15.10;99.90;;;;;;5078890;28;20029;-83
2023/10/13 03:51:01;;;;;;;21.98;8.85;;;15.10;99.90;;;;;;5082333;28;20382;-82
2023/10/13 03:53:55;;;;;;;26.52;9.45;;;15.20;99.90;;;;;;5072948;28;20491;-83
2023/10/13 03:56:26;;;;;;;28.30;8.75;;;15.20;99.90;;;;;;5097687;28;20040;-83
2023/10/13 03:58:53;;;;;;;26.80;10.45;;;15.30;99.90;;;;;;5079925;28;20038;-83
2023/10/13 04:01:31;;;;;;;31.10;9.02;;;15.30;99.90;;;;;;5076772;28;20041;-83
2023/10/13 04:04:04;;;;;;;22.85;9.30;;;15.30;99.90;;;;;;5062953;28;20036;-82
2023/10/13 04:17:40;;;;;;;14.27;8.18;;;14.90;99.90;;;;;;5072867;28;20392;-83
2023/10/13 04:37:10;;;;;;;31.02;14.40;;;14.00;99.90;;;;;;5080906;28;20030;-83
2023/10/13 04:41:41;;;;;;;23.17;13.48;;;13.80;99.90;;;;;;5076484;28;20043;-83
2023/10/13 04:48:13;;;;;;;25.92;13.05;;;13.60;99.90;;;;;;5078792;28;20114;-82
2023/10/13 04:50:44;;;;;;;27.10;12.82;;;13.50;99.90;;;;;;5065412;28;20017;-82
2023/10/13 04:53:27;;;;;;;24.77;11.98;;;13.50;99.90;;;;;;5061064;28;20035;-82
2023/10/13 05:04:21;;;;;;;28.52;13.15;;;13.40;99.90;;;;;;5081927;28;20023;-83
2023/10/13 05:46:48;;;;;;;21.80;9.30;;;13.20;99.90;;;;;;5079707;28;20491;-83
2023/10/13 05:49:39;;;;;;;;;;;13.10;99.90;;;;;;5079525;28;20483;-83
2023/10/13 05:52:06;;;;;;;21.35;9.10;;;12.90;99.90;;;;;;5075399;28;19916;-83
2023/10/13 06:30:14;;;;;;;20.42;8.10;;;14.10;99.90;;;;;;5108034;27;20028;-83
2023/10/13 06:32:39;;;;;;;15.57;7.40;;;14.10;99.90;;;;;;5057336;28;20037;-83
2023/10/13 06:35:18;;;;;;;18.13;6.72;;;14.10;99.90;;;;;;5074374;28;20029;-83
2023/10/13 06:37:44;;;;;;;23.02;7.25;;;14.20;99.90;;;;;;5081269;28;20467;-83
2023/10/13 06:42:50;;;;;;;16.10;7.20;;;14.40;99.90;;;;;;5065369;28;20060;-83
2023/10/13 06:45:20;;;;;;;15.07;7.55;;;14.50;99.90;;;;;;5106080;27;20098;-83
2023/10/13 06:47:46;;;;;;;13.88;7.22;;;14.50;99.90;;;;;;5057537;28;20119;-83
2023/10/13 06:50:19;;;;;;;17.98;7.28;;;14.60;99.90;;;;;;5057289;28;20436;-83
2023/10/13 06:52:48;;;;;;;15.45;7.00;;;14.70;99.90;;;;;;5099706;27;20036;-83
2023/10/13 06:55:23;;;;;;;18.73;7.75;;;14.80;99.90;;;;;;5085261;28;20028;-82
2023/10/13 06:57:51;;;;;;;24.20;6.90;;;14.80;99.90;;;;;;5051241;28;20020;-82
2023/10/13 07:00:29;;;;;;;17.30;7.43;;;14.90;99.90;;;;;;5078225;28;20044;-84
2023/10/13 07:03:05;;;;;;;15.38;6.22;;;14.90;99.90;;;;;;5115307;27;20032;-83
2023/10/13 07:05:43;;;;;;;25.58;7.82;;;14.80;99.90;;;;;;5080227;28;20012;-83
2023/10/13 07:08:14;;;;;;;15.48;6.57;;;15.00;99.90;;;;;;5073992;28;20080;-83
2023/10/13 07:11:02;;;;;;;18.95;8.68;;;15.00;99.90;;;;;;5055920;28;20021;-83
2023/10/13 07:13:29;;;;;;;18.10;6.70;;;15.10;99.90;;;;;;5077671;28;20024;-83
2023/10/13 07:16:00;;;;;;;25.55;6.63;;;15.20;99.90;;;;;;5071870;28;20021;-83
2023/10/13 07:18:35;;;;;;;22.75;6.95;;;15.30;99.90;;;;;;5057575;28;20115;-82
2023/10/13 07:21:09;;;;;;;20.00;7.13;;;15.30;99.90;;;;;;5074271;28;20064;-83
2023/10/13 07:23:36;;;;;;;17.15;6.57;;;15.50;99.90;;;;;;5075324;28;20029;-83
2023/10/13 07:26:04;;;;;;;16.90;6.35;;;15.50;99.90;;;;;;5061392;28;20029;-83
2023/10/13 07:28:31;;;;;;;16.63;7.15;;;15.60;99.90;;;;;;5073389;28;20770;-84
2023/10/13 07:33:23;;;;;;;23.33;6.95;;;15.90;99.90;;;;;;5066982;28;20112;-83
2023/10/13 07:36:49;;;;;;;19.38;6.70;;;16.00;99.90;;;;;;5096979;27;20029;-83
2023/10/13 07:39:10;;;;;;;;;;;16.20;99.90;;;;;;5063387;28;20036;-83
2023/10/13 07:41:36;;;;;;;13.68;6.10;;;16.30;99.90;;;;;;5076942;28;20635;-84
2023/10/13 07:44:04;;;;;;;16.38;6.75;;;16.40;99.90;;;;;;5087050;28;20025;-83
2023/10/13 07:46:33;;;;;;;15.25;6.82;;;16.40;99.90;;;;;;5069556;28;20028;-83
2023/10/13 07:49:20;;;;;;;39.65;6.47;;;16.50;99.90;;;;;;5056752;28;20352;-83
2023/10/13 07:51:49;;;;;;;17.40;6.78;;;16.60;99.90;;;;;;5075576;28;20119;-84
2023/10/13 07:54:21;;;;;;;18.00;6.30;;;16.70;99.90;;;;;;5059649;28;20468;-83
2023/10/13 07:56:50;;;;;;;15.43;6.32;;;16.70;99.90;;;;;;5073162;28;20375;-84
2023/10/13 07:59:16;;;;;;;23.65;7.93;;;16.80;99.90;;;;;;5077780;28;20037;-83
2023/10/13 08:01:45;;;;;;;22.10;7.43;;;16.80;99.90;;;;;;5055913;28;20181;-83
2023/10/13 08:04:11;;;;;;;16.75;6.03;;;16.90;99.90;;;;;;5082131;28;20039;-84
2023/10/13 08:06:40;;;;;;;19.13;6.57;;;17.00;99.90;;;;;;5073206;28;20028;-84
2023/10/13 08:09:07;;;;;;;19.70;6.68;;;17.10;99.90;;;;;;5080224;28;20115;-83
2023/10/13 08:11:39;;;;;;;13.32;5.97;;;17.10;99.90;;;;;;5063533;28;20025;-83
2023/10/13 08:14:22;;;;;;;20.13;6.93;;;17.20;99.90;;;;;;5063806;28;20039;-83
2023/10/13 08:16:54;;;;;;;16.02;6.57;;;17.30;99.90;;;;;;5053979;28;20028;-84
2023/10/13 08:19:31;;;;;;;13.30;5.55;;;17.40;99.90;;;;;;5060266;28;20042;-84
2023/10/13 08:21:59;;;;;;;19.35;6.35;;;17.50;99.90;;;;;;5076729;28;20024;-84
2023/10/13 08:37:28;;;;;;;17.02;6.40;;;17.80;99.90;;;;;;5083989;28;20097;-83
2023/10/13 08:48:15;;;;;;;13.13;5.53;;;18.10;99.90;;;;;;5082331;28;20038;-84
2023/10/13 08:53:32;;;;;;;17.70;6.30;;;18.10;99.90;;;;;;5105974;28;20128;-84
2023/10/13 09:12:20;;;;;;;;;;;18.50;99.90;;;;;;5111840;27;20067;-84
2023/10/13 09:14:57;;;;;;;13.63;5.18;;;18.80;99.90;;;;;;5077661;28;19911;-84
2023/10/13 09:23:12;;;;;;;12.25;5.50;;;20.30;99.90;;;;;;5070838;28;20052;-84
2023/10/13 09:25:53;;;;;;;11.75;5.22;;;20.90;99.90;;;;;;5065085;28;20043;-84
2023/10/13 09:28:20;;;;;;;;;;;21.20;99.90;;;;;;5071903;28;20111;-84
2023/10/13 09:30:52;;;;;;;13.80;4.88;;;21.30;99.90;;;;;;5084814;28;20276;-84
2023/10/13 09:33:47;;;;;;;12.23;5.07;;;21.40;99.90;;;;;;5073515;28;20055;-84
2023/10/13 09:36:16;;;;;;;15.43;5.13;;;21.40;99.90;;;;;;5066409;28;20550;-84
2023/10/13 09:38:48;;;;;;;11.75;5.20;;;21.60;99.90;;;;;;5070894;28;20029;-84
2023/10/13 09:41:26;;;;;;;12.52;5.05;;;21.50;99.90;;;;;;5052137;28;20039;-84
2023/10/13 09:43:53;;;;;;;13.30;5.45;;;21.50;99.90;;;;;;5054337;28;20052;-84
2023/10/13 09:46:26;;;;;;;8.85;4.57;;;21.80;99.90;;;;;;5069174;28;20041;-83
2023/10/13 09:49:07;;;;;;;11.70;4.75;;;21.90;99.90;;;;;;5072566;28;20107;-84
2023/10/13 09:51:33;;;;;;;9.95;4.20;;;21.90;99.90;;;;;;5079683;28;20025;-84
2023/10/13 09:54:16;;;;;;;11.35;5.93;;;21.80;99.90;;;;;;5054124;28;20048;-84
2023/10/13 09:56:51;;;;;;;14.90;4.72;;;21.90;99.90;;;;;;5066608;28;20518;-84
2023/10/13 09:59:57;;;;;;;15.00;5.15;;;22.30;99.90;;;;;;5070724;28;20109;-84
2023/10/13 10:02:25;;;;;;;8.68;5.55;;;22.30;99.90;;;;;;5041863;28;20049;-84
2023/10/13 10:04:52;;;;;;;16.65;5.85;;;22.90;99.90;;;;;;5039410;28;20035;-84
2023/10/13 10:07:28;;;;;;;13.65;5.20;;;23.10;99.90;;;;;;5053775;28;20036;-84
2023/10/13 10:10:01;;;;;;;11.18;4.75;;;23.20;99.90;;;;;;5039319;28;20029;-84
2023/10/13 10:12:57;;;;;;;16.98;5.72;;;23.10;99.90;;;;;;5056302;28;20052;-84
2023/10/13 10:15:33;;;;;;;14.63;5.93;;;23.30;99.90;;;;;;5055041;28;20036;-84
2023/10/13 10:18:00;;;;;;;12.43;5.63;;;23.70;99.90;;;;;;5053648;28;20118;-84
2023/10/13 10:20:42;;;;;;;19.17;5.40;;;23.70;99.90;;;;;;5068798;28;20435;-85
2023/10/13 10:23:24;;;;;;;16.05;6.65;;;23.70;99.90;;;;;;5080836;28;20142;-84
2023/10/13 10:25:53;;;;;;;12.63;6.05;;;23.60;99.90;;;;;;5095859;28;20471;-84
2023/10/13 10:28:19;;;;;;;13.38;5.53;;;23.40;99.90;;;;;;5096633;28;20036;-84
2023/10/13 10:30:45;;;;;;;14.32;5.72;;;23.60;99.90;;;;;;5099834;28;20387;-85
2023/10/13 10:33:13;;;;;;;12.68;5.57;;;23.70;99.90;;;;;;5076033;28;20040;-84
2023/10/13 10:35:43;;;;;;;12.68;5.60;;;23.60;99.90;;;;;;5091459;28;20475;-84
2023/10/13 10:40:58;;;;;;;16.17;5.97;;;23.60;99.90;;;;;;5095098;28;20054;-84
2023/10/13 10:43:41;;;;;;;18.85;6.05;;;23.60;99.90;;;;;;5118165;28;20066;-85
2023/10/13 10:46:18;;;;;;;13.40;5.43;;;23.60;99.90;;;;;;5067561;28;20038;-84
2023/10/13 10:48:47;;;;;;;13.70;5.38;;;23.50;99.90;;;;;;5079265;28;20024;-84
2023/10/13 10:53:46;;;;;;;18.85;6.50;;;22.70;99.90;;;;;;5081332;28;20088;-84
2023/10/13 10:56:19;;;;;;;12.57;6.00;;;22.30;99.90;;;;;;5082583;28;20119;-84
2023/10/13 10:58:54;;;;;;;12.75;6.10;;;22.10;99.90;;;;;;5067327;28;20084;-84
2023/10/13 11:01:24;;;;;;;10.48;6.05;;;21.90;99.90;;;;;;5081062;28;20062;-84
2023/10/13 11:03:57;;;;;;;19.40;6.13;;;21.80;99.90;;;;;;5085363;28;20657;-84
2023/10/13 11:06:25;;;;;;;20.70;6.30;;;22.00;99.90;;;;;;5063736;28;20029;-84
2023/10/13 11:09:04;;;;;;;15.93;6.28;;;21.90;99.90;;;;;;5066983;28;20355;-84
2023/10/13 11:15:44;;;;;;;15.13;6.55;;;22.40;99.90;;;;;;5074387;28;20035;-84
2023/10/13 11:18:13;;;;;;;13.20;6.28;;;23.40;99.90;;;;;;5098044;28;20028;-85
2023/10/13 11:20:45;;;;;;;13.27;5.15;;;24.20;99.90;;;;;;5090286;28;20103;-84
2023/10/13 11:23:15;;;;;;;15.90;5.85;;;24.50;99.90;;;;;;5064933;28;20020;-84
2023/10/13 11:25:44;;;;;;;16.58;5.72;;;24.80;99.90;;;;;;5084764;28;20048;-84
2023/10/13 11:28:17;;;;;;;15.30;6.10;;;25.20;99.90;;;;;;5084405;28;20032;-84
2023/10/13 11:30:50;;;;;;;13.15;5.30;;;25.50;99.90;;;;;;5069485;28;20051;-85
2023/10/13 11:33:23;;;;;;;12.02;5.43;;;25.70;99.90;;;;;;5062658;28;20387;-85
2023/10/13 11:38:26;;;;;;;12.85;5.45;;;26.00;99.90;;;;;;5110248;27;20065;-84
2023/10/13 11:51:39;;;;;;;13.30;5.80;;;25.20;99.90;;;;;;5095908;28;20027;-85
2023/10/13 11:54:04;;;;;;;13.52;5.63;;;25.50;99.90;;;;;;5071681;28;20020;-84
2023/10/13 11:56:30;;;;;;;15.88;5.95;;;25.80;99.90;;;;;;5075300;28;20031;-84
2023/10/13 11:59:01;;;;;;;12.70;5.50;;;25.90;99.90;;;;;;5111247;27;20482;-84
2023/10/13 12:07:17;;;;;;;17.10;5.20;;;25.30;99.90;;;;;;5103845;27;20023;-85
2023/10/13 12:12:42;;;;;;;15.63;5.25;;;25.30;99.90;;;;;;5109383;28;20024;-85
2023/10/13 12:15:09;;;;;;;18.33;5.95;;;25.30;99.90;;;;;;5066941;28;20032;-84
2023/10/13 12:17:36;;;;;;;16.30;5.90;;;25.30;99.90;;;;;;5086788;28;20058;-84
2023/10/13 12:20:05;;;;;;;14.18;5.53;;;25.40;99.90;;;;;;5078758;28;20699;-84
2023/10/13 12:22:42;;;;;;;15.45;5.90;;;25.60;99.90;;;;;;5052204;28;20651;-84
2023/10/13 12:27:57;;;;;;;18.52;5.15;;;25.60;98.90;;;;;;5081184;28;20043;-84
2023/10/13 12:30:35;;;;;;;16.05;5.78;;;25.50;98.10;;;;;;5093152;28;20039;-84
2023/10/13 12:33:09;;;;;;;17.23;5.43;;;25.10;98.40;;;;;;5110428;27;20024;-84
2023/10/13 12:36:26;;;;;;;11.02;5.57;;;24.90;99.20;;;;;;5075837;28;20024;-85
2023/10/13 12:51:07;;;;;;;11.27;4.65;;;24.90;98.20;;;;;;5102739;28;20043;-85
2023/10/13 12:53:33;;;;;;;18.15;4.97;;;25.00;97.40;;;;;;5086447;28;20032;-85
2023/10/13 12:55:59;;;;;;;18.85;5.88;;;25.00;97.40;;;;;;5076022;28;20031;-85
2023/10/13 12:58:29;;;;;;;19.60;5.22;;;25.30;97.40;;;;;;5066264;28;20479;-84
2023/10/13 13:01:06;;;;;;;12.05;4.30;;;25.50;97.20;;;;;;5089411;28;20054;-84
2023/10/13 13:03:32;;;;;;;19.25;4.95;;;25.30;96.20;;;;;;5060300;28;20119;-85
2023/10/13 13:05:58;;;;;;;17.77;4.70;;;25.10;96.50;;;;;;5070555;28;20142;-84
2023/10/13 13:08:24;;;;;;;13.38;5.15;;;25.10;96.30;;;;;;5067780;28;20063;-85
2023/10/13 13:10:51;;;;;;;10.40;5.35;;;24.80;96.30;;;;;;5074688;28;20047;-85
2023/10/13 13:13:24;;;;;;;16.73;5.18;;;24.60;95.90;;;;;;5055072;28;20573;-84
2023/10/13 13:15:50;;;;;;;16.83;5.43;;;24.30;96.50;;;;;;5090287;28;20028;-84
2023/10/13 13:18:16;;;;;;;13.65;5.00;;;24.20;97.20;;;;;;5074570;28;20682;-85
2023/10/13 13:20:53;;;;;;;15.20;5.10;;;24.00;97.40;;;;;;5074765;28;20036;-84
2023/10/13 13:23:19;;;;;;;9.27;4.75;;;23.80;97.90;;;;;;5078227;28;20036;-83
2023/10/13 13:25:45;;;;;;;16.08;5.60;;;23.60;97.60;;;;;;5081720;28;20030;-84
2023/10/13 13:28:11;;;;;;;12.13;4.75;;;23.50;98.40;;;;;;5093481;28;20686;-84
2023/10/13 13:30:41;;;;;;;17.40;5.63;;;23.50;97.70;;;;;;5066361;28;20075;-84
2023/10/13 13:33:10;;;;;;;13.13;5.00;;;23.50;98.10;;;;;;5077511;28;20050;-84
2023/10/13 13:35:38;;;;;;;12.30;4.82;;;23.70;97.80;;;;;;5101681;28;20037;-84
2023/10/13 13:38:09;;;;;;;13.07;5.43;;;23.70;98.60;;;;;;5060288;28;20020;-84
2023/10/13 13:40:39;;;;;;;14.25;5.25;;;23.70;98.30;;;;;;5081039;28;20433;-84
2023/10/13 13:43:06;;;;;;;15.13;5.18;;;23.80;98.00;;;;;;5114691;28;20424;-84
2023/10/13 13:45:34;;;;;;;12.93;4.57;;;23.70;98.20;;;;;;5066558;28;20032;-84
2023/10/13 13:48:07;;;;;;;15.40;5.32;;;23.60;98.20;;;;;;5058292;28;20115;-84
2023/10/13 13:50:38;;;;;;;14.10;5.15;;;23.50;98.90;;;;;;5064009;28;20035;-84
2023/10/13 13:53:09;;;;;;;10.75;5.03;;;23.40;98.60;;;;;;5089823;28;20036;-85
2023/10/13 13:55:34;;;;;;;14.45;5.25;;;23.30;99.40;;;;;;5097908;28;20044;-84
2023/10/13 13:58:00;;;;;;;15.48;6.35;;;23.30;99.10;;;;;;5089324;28;20036;-84
2023/10/13 14:00:39;;;;;;;15.57;5.82;;;23.30;99.90;;;;;;5070061;28;20080;-84
2023/10/13 14:03:12;;;;;;;12.25;5.85;;;23.30;99.30;;;;;;5066572;28;20035;-84
2023/10/13 14:05:45;;;;;;;17.73;5.35;;;23.30;99.90;;;;;;5072125;28;20027;-84
2023/10/13 14:08:15;;;;;;;23.50;5.30;;;23.50;99.30;;;;;;5066413;28;20124;-84
2023/10/13 14:11:21;;;;;;;12.25;5.30;;;23.70;99.00;;;;;;5078614;28;20385;-84
2023/10/13 14:13:55;;;;;;;9.50;4.55;;;24.00;98.90;;;;;;5062101;28;20027;-84
2023/10/13 14:16:22;;;;;;;17.45;4.93;;;24.30;98.20;;;;;;5081572;28;20115;-84
2023/10/13 14:18:51;;;;;;;17.13;5.70;;;24.30;97.40;;;;;;5106359;28;20051;-85
2023/10/13 14:21:17;;;;;;;13.77;5.38;;;24.40;97.10;;;;;;5072205;28;20039;-84
2023/10/13 14:23:47;;;;;;;23.63;5.30;;;24.50;97.50;;;;;;5122631;27;20015;-84
2023/10/13 14:26:20;;;;;;;20.25;6.53;;;24.50;97.00;;;;;;5064945;28;20059;-84
2023/10/13 14:29:03;;;;;;;19.13;5.63;;;24.60;97.00;;;;;;5088562;28;20031;-84
2023/10/13 14:31:29;;;;;;;11.85;5.05;;;24.50;96.20;;;;;;5076022;28;20496;-84
2023/10/13 14:33:56;;;;;;;17.67;5.47;;;24.30;96.80;;;;;;5080306;28;20036;-84
2023/10/13 14:36:22;;;;;;;15.52;5.03;;;24.10;97.40;;;;;;5108165;28;20027;-84
2023/10/13 14:38:51;;;;;;;12.48;5.07;;;23.80;97.00;;;;;;5081469;28;20055;-85
2023/10/13 14:41:18;;;;;;;10.60;5.32;;;23.60;96.90;;;;;;5090701;28;20040;-84
2023/10/13 14:43:47;;;;;;;9.32;5.00;;;23.50;97.40;;;;;;5064107;28;20041;-84
2023/10/13 14:46:16;;;;;;;12.38;4.43;;;23.40;97.80;;;;;;5081188;28;20040;-84
2023/10/13 14:48:43;;;;;;;16.77;5.18;;;23.40;97.90;;;;;;5086465;28;20482;-84
2023/10/13 14:51:18;;;;;;;15.25;4.85;;;23.20;97.70;;;;;;5077399;28;20039;-85
2023/10/13 14:53:45;;;;;;;10.30;5.07;;;23.20;98.50;;;;;;5116996;27;20470;-84
2023/10/13 14:56:15;;;;;;;13.13;4.80;;;23.10;98.30;;;;;;5080706;28;20383;-84
2023/10/13 14:58:42;;;;;;;13.35;5.18;;;23.10;98.30;;;;;;5086017;28;20398;-84
2023/10/13 15:01:14;;;;;;;12.95;4.95;;;23.10;98.60;;;;;;5082925;28;20036;-84
2023/10/13 15:03:46;;;;;;;12.73;5.32;;;23.10;98.10;;;;;;5085241;28;20032;-84
2023/10/13 15:06:17;;;;;;;17.95;5.03;;;23.10;99.40;;;;;;5094082;28;20012;-84
2023/10/13 15:08:47;;;;;;;10.52;4.65;;;23.00;98.60;;;;;;5066067;28;20409;-84
2023/10/13 15:11:13;;;;;;;14.60;4.78;;;23.00;99.00;;;;;;5068195;28;20123;-84
2023/10/13 15:13:42;;;;;;;15.82;5.78;;;23.00;99.10;;;;;;5067623;28;20068;-84
2023/10/13 15:16:19;;;;;;;17.70;5.07;;;23.00;98.70;;;;;;5077684;28;20467;-84
2023/10/13 15:18:52;;;;;;;19.67;5.20;;;22.90;99.90;;;;;;5070756;28;20611;-84
2023/10/13 15:21:37;;;;;;;16.35;4.90;;;22.90;99.70;;;;;;5063614;28;20126;-84
2023/10/13 15:24:04;;;;;;;15.68;4.93;;;22.70;99.80;;;;;;5103224;28;20370;-84
2023/10/13 15:26:30;;;;;;;14.50;5.28;;;22.60;99.90;;;;;;5075181;28;20029;-84
2023/10/13 15:29:00;;;;;;;16.67;5.18;;;22.50;99.90;;;;;;5079109;28;20441;-84
2023/10/13 15:31:37;;;;;;;17.50;5.18;;;22.40;99.60;;;;;;5090401;28;20041;-84
2023/10/13 15:34:14;;;;;;;12.13;4.50;;;22.20;99.90;;;;;;5062164;28;20035;-83
2023/10/13 15:36:44;;;;;;;17.15;4.93;;;22.10;99.90;;;;;;5068957;28;20084;-84
2023/10/13 15:39:11;;;;;;;9.70;4.90;;;22.00;99.90;;;;;;5077825;28;20024;-84
2023/10/13 15:41:38;;;;;;;14.32;4.45;;;21.80;99.90;;;;;;5099383;28;20032;-84
2023/10/13 15:44:09;;;;;;;11.30;4.75;;;21.70;99.90;;;;;;5064267;28;20020;-84
2023/10/13 15:46:36;;;;;;;11.70;4.50;;;21.60;99.90;;;;;;5101886;28;20032;-84
2023/10/13 15:49:05;;;;;;;12.13;5.03;;;21.50;99.90;;;;;;5084979;28;20074;-84
2023/10/13 15:51:32;;;;;;;21.17;5.32;;;21.40;99.90;;;;;;5085519;28;20122;-84
2023/10/13 15:53:59;;;;;;;14.15;5.47;;;21.20;99.90;;;;;;5067155;28;20034;-84
2023/10/13 15:56:25;;;;;;;10.70;4.68;;;21.20;99.90;;;;;;5062409;28;20040;-84
2023/10/13 15:58:51;;;;;;;22.23;6.07;;;21.20;99.90;;;;;;5107446;28;20031;-84
2023/10/13 16:01:16;;;;;;;18.33;4.85;;;21.30;99.90;;;;;;5061570;28;20032;-84
2023/10/13 16:03:51;;;;;;;8.65;4.50;;;21.30;99.90;;;;;;5067093;28;20366;-84
2023/10/13 16:06:25;;;;;;;12.60;5.20;;;21.40;99.90;;;;;;5100418;28;20342;-85
2023/10/13 16:08:51;;;;;;;10.95;4.75;;;21.40;99.90;;;;;;5096356;28;20108;-85
2023/10/13 16:11:17;;;;;;;14.98;5.40;;;21.40;99.90;;;;;;5075484;28;20491;-84
2023/10/13 16:13:51;;;;;;;18.20;4.80;;;21.40;99.90;;;;;;5114597;28;20028;-84
2023/10/13 16:16:25;;;;;;;13.75;4.70;;;21.40;99.90;;;;;;5088225;28;20497;-84
2023/10/13 16:18:52;;;;;;;9.82;4.53;;;21.30;99.90;;;;;;5087442;28;20044;-84
2023/10/13 16:21:18;;;;;;;14.40;5.10;;;21.30;99.90;;;;;;5072546;28;20062;-84
2023/10/13 16:23:50;;;;;;;23.90;5.50;;;21.20;99.90;;;;;;5094188;28;20037;-84
2023/10/13 16:26:21;;;;;;;9.30;4.80;;;21.00;99.90;;;;;;5077252;28;20123;-84
2023/10/13 16:28:57;;;;;;;15.30;6.63;;;20.80;99.90;;;;;;5075195;28;20082;-84
2023/10/13 16:31:23;;;;;;;14.30;5.88;;;20.70;99.90;;;;;;5076462;28;20031;-84
2023/10/13 16:33:50;;;;;;;15.23;4.85;;;20.70;99.90;;;;;;5076203;28;20032;-84
2023/10/13 16:36:15;;;;;;;16.55;4.70;;;20.60;99.90;;;;;;5095784;28;20031;-84
2023/10/13 16:38:45;;;;;;;16.00;5.72;;;20.40;99.90;;;;;;5079384;28;20479;-84
2023/10/13 16:41:12;;;;;;;11.25;5.00;;;20.30;99.90;;;;;;5096372;28;20036;-84
2023/10/13 16:43:39;;;;;;;15.63;5.10;;;20.00;99.90;;;;;;5066430;28;20111;-84